sensor_id;sensor_type;location;lat;lon;timestamp;pressure;altitude;pressure_sealevel;temperature;humidity
22582;BME280;47125;48.542;9.052;2023-01-29T00:09:47;96992.09;;;1.69;76.50
22582;BME280;47125;48.542;9.052;2023-01-29T00:19:51;96996.59;;;1.77;76.51
22582;BME280;47125;48.542;9.052;2023-01-29T00:29:54;96975.13;;;1.63;76.84
22582;BME280;47125;48.542;9.052;2023-01-29T00:40:13;96982.75;;;1.75;76.05
22582;BME280;47125;48.542;9.052;2023-01-29T00:50:16;96977.03;;;1.87;75.64
22582;BME280;47125;48.542;9.052;2023-01-29T01:00:21;96982.88;;;1.65;75.55
22582;BME280;47125;48.542;9.052;2023-01-29T01:10:26;96984.19;;;1.69;75.78
22582;BME280;47125;48.542;9.052;2023-01-29T01:20:32;96978.50;;;1.82;74.92
22582;BME280;47125;48.542;9.052;2023-01-29T01:30:35;96980.34;;;1.89;75.01
22582;BME280;47125;48.542;9.052;2023-01-29T01:40:42;96970.09;;;1.78;74.82
22582;BME280;47125;48.542;9.052;2023-01-29T01:50:45;96968.16;;;1.88;74.90
22582;BME280;47125;48.542;9.052;2023-01-29T02:00:52;96957.81;;;1.95;74.92
22582;BME280;47125;48.542;9.052;2023-01-29T02:10:56;96962.91;;;1.88;74.06
22582;BME280;47125;48.542;9.052;2023-01-29T02:21:05;96964.69;;;1.88;73.65
22582;BME280;47125;48.542;9.052;2023-01-29T02:31:14;96975.34;;;1.70;74.41
22582;BME280;47125;48.542;9.052;2023-01-29T02:41:20;96978.69;;;1.80;72.92
22582;BME280;47125;48.542;9.052;2023-01-29T02:51:28;96988.38;;;1.80;74.08
22582;BME280;47125;48.542;9.052;2023-01-29T03:01:34;96977.03;;;1.87;73.22
22582;BME280;47125;48.542;9.052;2023-01-29T03:11:41;96982.91;;;1.73;73.19
22582;BME280;47125;48.542;9.052;2023-01-29T03:21:45;96974.53;;;1.78;72.67
22582;BME280;47125;48.542;9.052;2023-01-29T03:31:55;96961.41;;;1.86;70.60
22582;BME280;47125;48.542;9.052;2023-01-29T03:42:10;96971.25;;;1.76;71.77
22582;BME280;47125;48.542;9.052;2023-01-29T03:52:17;96968.69;;;1.58;71.87
22582;BME280;47125;48.542;9.052;2023-01-29T04:02:21;96967.81;;;1.83;70.97
22582;BME280;47125;48.542;9.052;2023-01-29T04:12:32;96980.84;;;1.93;71.23
22582;BME280;47125;48.542;9.052;2023-01-29T04:22:38;96970.25;;;1.77;71.68
22582;BME280;47125;48.542;9.052;2023-01-29T04:32:48;96977.78;;;1.72;70.52
22582;BME280;47125;48.542;9.052;2023-01-29T04:42:58;96975.34;;;1.70;70.43
22582;BME280;47125;48.542;9.052;2023-01-29T04:53:05;96975.78;;;1.65;69.38
22582;BME280;47125;48.542;9.052;2023-01-29T05:03:09;96970.47;;;1.49;70.52
22582;BME280;47125;48.542;9.052;2023-01-29T05:13:14;96972.66;;;1.62;69.29
22582;BME280;47125;48.542;9.052;2023-01-29T05:23:17;96981.00;;;1.49;70.43
22582;BME280;47125;48.542;9.052;2023-01-29T05:33:22;96964.59;;;1.63;69.86
22582;BME280;47125;48.542;9.052;2023-01-29T05:43:24;96967.09;;;1.65;69.45
22582;BME280;47125;48.542;9.052;2023-01-29T05:53:29;96960.81;;;1.66;69.57
22582;BME280;47125;48.542;9.052;2023-01-29T06:03:31;96980.50;;;1.54;68.97
22582;BME280;47125;48.542;9.052;2023-01-29T06:13:35;96935.53;;;1.39;69.01
22582;BME280;47125;48.542;9.052;2023-01-29T06:23:38;96939.84;;;1.48;68.88
22582;BME280;47125;48.542;9.052;2023-01-29T06:33:42;96942.34;;;1.50;68.82
22582;BME280;47125;48.542;9.052;2023-01-29T06:43:44;96963.44;;;1.32;69.90
22582;BME280;47125;48.542;9.052;2023-01-29T06:53:49;96964.91;;;1.60;68.85
22582;BME280;47125;48.542;9.052;2023-01-29T07:03:51;96970.66;;;1.56;69.43
22582;BME280;47125;48.542;9.052;2023-01-29T07:13:55;96977.25;;;1.60;69.56
22582;BME280;47125;48.542;9.052;2023-01-29T07:23:58;96978.41;;;1.57;68.79
22582;BME280;47125;48.542;9.052;2023-01-29T07:34:02;96987.53;;;1.45;69.30
22582;BME280;47125;48.542;9.052;2023-01-29T07:44:05;96979.97;;;1.42;69.63
22582;BME280;47125;48.542;9.052;2023-01-29T07:54:09;97006.31;;;1.50;68.54
22582;BME280;47125;48.542;9.052;2023-01-29T08:04:11;97018.53;;;1.59;67.77
22582;BME280;47125;48.542;9.052;2023-01-29T08:14:16;97025.78;;;1.57;67.50
22582;BME280;47125;48.542;9.052;2023-01-29T08:24:18;97012.50;;;1.41;67.26
22582;BME280;47125;48.542;9.052;2023-01-29T08:34:22;97016.41;;;1.29;67.04
22582;BME280;47125;48.542;9.052;2023-01-29T08:44:25;97033.47;;;1.51;67.13
22582;BME280;47125;48.542;9.052;2023-01-29T08:54:28;97031.91;;;1.66;67.01
22582;BME280;47125;48.542;9.052;2023-01-29T09:04:33;97038.44;;;1.88;65.49
22582;BME280;47125;48.542;9.052;2023-01-29T09:14:36;97047.63;;;1.84;64.81
22582;BME280;47125;48.542;9.052;2023-01-29T09:24:39;97050.22;;;1.76;64.36
22582;BME280;47125;48.542;9.052;2023-01-29T09:34:42;97059.13;;;2.16;64.53
22582;BME280;47125;48.542;9.052;2023-01-29T09:44:47;97051.31;;;1.99;64.18
22582;BME280;47125;48.542;9.052;2023-01-29T09:54:55;97055.81;;;2.06;64.11
22582;BME280;47125;48.542;9.052;2023-01-29T10:05:14;97047.22;;;2.04;65.03
22582;BME280;47125;48.542;9.052;2023-01-29T10:15:26;97034.69;;;1.98;63.65
22582;BME280;47125;48.542;9.052;2023-01-29T10:25:38;96989.00;;;2.32;62.94
22582;BME280;47125;48.542;9.052;2023-01-29T10:35:42;96983.97;;;2.46;62.09
22582;BME280;47125;48.542;9.052;2023-01-29T10:45:46;96982.91;;;2.15;63.46
22582;BME280;47125;48.542;9.052;2023-01-29T10:55:54;97001.75;;;2.44;62.03
22582;BME280;47125;48.542;9.052;2023-01-29T11:06:01;96983.50;;;2.67;61.55
22582;BME280;47125;48.542;9.052;2023-01-29T11:16:07;96969.16;;;2.94;61.78
22582;BME280;47125;48.542;9.052;2023-01-29T11:26:10;96966.56;;;3.57;60.21
22582;BME280;47125;48.542;9.052;2023-01-29T11:36:31;96981.59;;;3.56;60.19
22582;BME280;47125;48.542;9.052;2023-01-29T11:46:35;96970.88;;;3.50;60.72
22582;BME280;47125;48.542;9.052;2023-01-29T11:56:42;96968.78;;;3.84;58.33
22582;BME280;47125;48.542;9.052;2023-01-29T12:06:45;96945.81;;;4.23;57.97
22582;BME280;47125;48.542;9.052;2023-01-29T12:16:53;96947.13;;;4.50;57.22
22582;BME280;47125;48.542;9.052;2023-01-29T12:27:00;96928.06;;;4.55;55.64
22582;BME280;47125;48.542;9.052;2023-01-29T12:37:09;96896.09;;;5.02;55.74
22582;BME280;47125;48.542;9.052;2023-01-29T12:47:16;96866.81;;;4.43;56.51
22582;BME280;47125;48.542;9.052;2023-01-29T12:57:23;96839.84;;;5.29;54.68
22582;BME280;47125;48.542;9.052;2023-01-29T13:07:28;96815.84;;;5.01;55.90
22582;BME280;47125;48.542;9.052;2023-01-29T13:17:35;96793.56;;;5.10;55.58
22582;BME280;47125;48.542;9.052;2023-01-29T13:27:38;96807.34;;;5.06;55.50
22582;BME280;47125;48.542;9.052;2023-01-29T13:37:45;96796.84;;;5.12;55.70
22582;BME280;47125;48.542;9.052;2023-01-29T13:47:49;96797.41;;;5.22;54.74
22582;BME280;47125;48.542;9.052;2023-01-29T13:57:54;96791.72;;;4.96;54.80
22582;BME280;47125;48.542;9.052;2023-01-29T14:07:58;96801.41;;;4.74;54.88
22582;BME280;47125;48.542;9.052;2023-01-29T14:28:27;96821.63;;;4.30;57.15
22582;BME280;47125;48.542;9.052;2023-01-29T14:38:30;96824.66;;;4.04;57.91
22582;BME280;47125;48.542;9.052;2023-01-29T14:48:39;96827.28;;;4.27;56.93
22582;BME280;47125;48.542;9.052;2023-01-29T14:58:47;96829.25;;;3.57;58.61
22582;BME280;47125;48.542;9.052;2023-01-29T15:08:54;96826.81;;;3.78;59.14
22582;BME280;47125;48.542;9.052;2023-01-29T15:19:03;96806.63;;;3.23;60.37
22582;BME280;47125;48.542;9.052;2023-01-29T15:29:19;96807.41;;;3.32;60.88
22582;BME280;47125;48.542;9.052;2023-01-29T15:39:24;96815.91;;;3.50;60.51
22582;BME280;47125;48.542;9.052;2023-01-29T15:49:30;96806.16;;;3.20;61.08
22582;BME280;47125;48.542;9.052;2023-01-29T15:59:34;96803.78;;;2.94;62.05
22582;BME280;47125;48.542;9.052;2023-01-29T16:09:40;96801.81;;;2.88;62.99
22582;BME280;47125;48.542;9.052;2023-01-29T16:19:43;96803.03;;;2.69;62.76
22582;BME280;47125;48.542;9.052;2023-01-29T16:29:57;96797.13;;;2.51;63.84
22582;BME280;47125;48.542;9.052;2023-01-29T16:40:09;96793.34;;;2.30;65.16
22582;BME280;47125;48.542;9.052;2023-01-29T16:50:25;96799.31;;;2.15;66.28
22582;BME280;47125;48.542;9.052;2023-01-29T17:00:36;96803.56;;;2.08;66.47
22582;BME280;47125;48.542;9.052;2023-01-29T17:10:46;96812.66;;;2.22;65.52
22582;BME280;47125;48.542;9.052;2023-01-29T17:20:49;96816.25;;;2.21;66.04
22582;BME280;47125;48.542;9.052;2023-01-29T17:30:54;96817.72;;;1.99;66.75
22582;BME280;47125;48.542;9.052;2023-01-29T17:41:07;96818.72;;;2.14;66.83
22582;BME280;47125;48.542;9.052;2023-01-29T17:51:15;96817.72;;;1.91;67.42
22582;BME280;47125;48.542;9.052;2023-01-29T18:01:17;96812.78;;;2.04;66.75
22582;BME280;47125;48.542;9.052;2023-01-29T18:11:21;96807.03;;;2.01;67.54
22582;BME280;47125;48.542;9.052;2023-01-29T18:21:23;96815.09;;;1.83;68.17
22582;BME280;47125;48.542;9.052;2023-01-29T18:31:27;96820.47;;;1.65;68.43
22582;BME280;47125;48.542;9.052;2023-01-29T18:41:30;96806.78;;;1.46;69.85
22582;BME280;47125;48.542;9.052;2023-01-29T18:51:34;96797.66;;;1.16;70.81
22582;BME280;47125;48.542;9.052;2023-01-29T19:01:36;96804.78;;;1.32;70.36
22582;BME280;47125;48.542;9.052;2023-01-29T19:11:40;96799.22;;;1.43;70.20
22582;BME280;47125;48.542;9.052;2023-01-29T19:21:42;96788.22;;;1.55;69.79
22582;BME280;47125;48.542;9.052;2023-01-29T19:31:46;96782.59;;;1.42;70.32
22582;BME280;47125;48.542;9.052;2023-01-29T19:41:49;96794.50;;;1.71;69.86
22582;BME280;47125;48.542;9.052;2023-01-29T19:51:53;96810.31;;;1.87;68.92
22582;BME280;47125;48.542;9.052;2023-01-29T20:01:58;96815.38;;;1.64;69.55
22582;BME280;47125;48.542;9.052;2023-01-29T20:12:02;96813.59;;;1.73;69.23
22582;BME280;47125;48.542;9.052;2023-01-29T20:22:05;96816.06;;;1.90;68.67
22582;BME280;47125;48.542;9.052;2023-01-29T20:32:09;96824.91;;;1.57;69.59
22582;BME280;47125;48.542;9.052;2023-01-29T20:42:12;96819.41;;;1.34;69.76
22582;BME280;47125;48.542;9.052;2023-01-29T20:52:16;96801.44;;;1.14;70.85
22582;BME280;47125;48.542;9.052;2023-01-29T21:02:19;96792.81;;;0.95;71.57
22582;BME280;47125;48.542;9.052;2023-01-29T21:12:23;96762.53;;;0.83;71.96
22582;BME280;47125;48.542;9.052;2023-01-29T21:22:25;96754.88;;;0.64;72.38
22582;BME280;47125;48.542;9.052;2023-01-29T21:32:29;96744.34;;;0.64;72.40
22582;BME280;47125;48.542;9.052;2023-01-29T21:42:32;96739.63;;;0.68;72.10
22582;BME280;47125;48.542;9.052;2023-01-29T21:52:54;96751.59;;;0.70;72.46
22582;BME280;47125;48.542;9.052;2023-01-29T22:02:56;96749.09;;;0.61;72.34
22582;BME280;47125;48.542;9.052;2023-01-29T22:13:00;96742.84;;;0.53;72.85
22582;BME280;47125;48.542;9.052;2023-01-29T22:23:02;96741.84;;;0.54;73.01
22582;BME280;47125;48.542;9.052;2023-01-29T22:33:06;96742.03;;;0.61;72.74
22582;BME280;47125;48.542;9.052;2023-01-29T22:43:10;96722.28;;;0.49;73.30
22582;BME280;47125;48.542;9.052;2023-01-29T22:53:14;96729.31;;;0.48;73.16
22582;BME280;47125;48.542;9.052;2023-01-29T23:03:16;96708.59;;;0.37;73.64
22582;BME280;47125;48.542;9.052;2023-01-29T23:13:20;96696.00;;;0.49;73.25
22582;BME280;47125;48.542;9.052;2023-01-29T23:23:22;96677.34;;;0.26;73.85
22582;BME280;47125;48.542;9.052;2023-01-29T23:33:26;96649.75;;;0.22;73.91
22582;BME280;47125;48.542;9.052;2023-01-29T23:43:29;96635.97;;;0.20;73.88
22582;BME280;47125;48.542;9.052;2023-01-29T23:53:33;96626.41;;;0.11;74.27
